sensor_id;sensor_type;location;lat;lon;timestamp;pressure;altitude;pressure_sealevel;temperature;humidity
14269;BME280;7218;51.480;7.006;2022-07-05T00:00:07;101381.50;;;19.82;75.38
14269;BME280;7218;51.480;7.006;2022-07-05T00:02:34;101393.09;;;19.78;75.68
14269;BME280;7218;51.480;7.006;2022-07-05T00:05:00;101385.91;;;19.82;75.39
14269;BME280;7218;51.480;7.006;2022-07-05T00:07:28;101384.03;;;19.84;76.35
14269;BME280;7218;51.480;7.006;2022-07-05T00:09:56;101387.75;;;19.80;75.72
14269;BME280;7218;51.480;7.006;2022-07-05T00:12:25;101381.91;;;19.71;76.32
14269;BME280;7218;51.480;7.006;2022-07-05T00:14:53;101373.28;;;19.66;78.04
14269;BME280;7218;51.480;7.006;2022-07-05T00:17:19;101384.84;;;19.64;77.59
14269;BME280;7218;51.480;7.006;2022-07-05T00:19:46;101379.94;;;19.76;77.18
14269;BME280;7218;51.480;7.006;2022-07-05T00:22:13;101376.09;;;19.84;76.39
14269;BME280;7218;51.480;7.006;2022-07-05T00:24:41;101369.91;;;20.06;75.55
14269;BME280;7218;51.480;7.006;2022-07-05T00:27:07;101377.47;;;19.94;75.70
14269;BME280;7218;51.480;7.006;2022-07-05T00:29:34;101374.38;;;19.83;76.52
14269;BME280;7218;51.480;7.006;2022-07-05T00:32:00;101377.34;;;19.75;76.32
14269;BME280;7218;51.480;7.006;2022-07-05T00:34:26;101382.69;;;19.73;77.14
14269;BME280;7218;51.480;7.006;2022-07-05T00:36:53;101371.91;;;19.78;77.31
14269;BME280;7218;51.480;7.006;2022-07-05T00:39:19;101381.91;;;19.71;78.45
14269;BME280;7218;51.480;7.006;2022-07-05T00:41:47;101378.34;;;19.72;78.46
14269;BME280;7218;51.480;7.006;2022-07-05T00:44:14;101379.06;;;19.76;78.39
14269;BME280;7218;51.480;7.006;2022-07-05T00:46:43;101384.47;;;19.73;78.24
14269;BME280;7218;51.480;7.006;2022-07-05T00:49:09;101382.97;;;19.67;78.29
14269;BME280;7218;51.480;7.006;2022-07-05T00:51:37;101378.50;;;19.68;77.85
14269;BME280;7218;51.480;7.006;2022-07-05T00:54:05;101379.06;;;19.76;78.38
14269;BME280;7218;51.480;7.006;2022-07-05T00:56:32;101382.81;;;19.70;78.35
14269;BME280;7218;51.480;7.006;2022-07-05T00:59:00;101386.34;;;19.71;78.59
14269;BME280;7218;51.480;7.006;2022-07-05T01:01:27;101385.06;;;19.58;79.15
14269;BME280;7218;51.480;7.006;2022-07-05T01:03:53;101391.38;;;19.55;79.89
14269;BME280;7218;51.480;7.006;2022-07-05T01:06:20;101391.22;;;19.58;78.73
14269;BME280;7218;51.480;7.006;2022-07-05T01:08:46;101393.88;;;19.58;79.13
14269;BME280;7218;51.480;7.006;2022-07-05T01:11:14;101391.13;;;19.61;78.94
14269;BME280;7218;51.480;7.006;2022-07-05T01:13:41;101392.03;;;19.60;79.56
14269;BME280;7218;51.480;7.006;2022-07-05T01:16:09;101390.22;;;19.62;80.15
14269;BME280;7218;51.480;7.006;2022-07-05T01:18:36;101387.50;;;19.64;80.32
14269;BME280;7218;51.480;7.006;2022-07-05T01:21:02;101390.44;;;19.56;79.69
14269;BME280;7218;51.480;7.006;2022-07-05T01:23:32;101390.56;;;19.75;79.48
14269;BME280;7218;51.480;7.006;2022-07-05T01:26:00;101388.63;;;19.80;78.45
14269;BME280;7218;51.480;7.006;2022-07-05T01:28:27;101384.59;;;19.70;78.46
14269;BME280;7218;51.480;7.006;2022-07-05T01:30:55;101391.88;;;19.65;79.77
14269;BME280;7218;51.480;7.006;2022-07-05T01:33:27;101389.34;;;19.62;78.80
14269;BME280;7218;51.480;7.006;2022-07-05T01:35:54;101392.97;;;19.59;79.66
14269;BME280;7218;51.480;7.006;2022-07-05T01:38:21;101391.03;;;19.63;79.11
14269;BME280;7218;51.480;7.006;2022-07-05T01:40:48;101385.88;;;19.60;79.43
14269;BME280;7218;51.480;7.006;2022-07-05T01:43:17;101386.06;;;19.55;79.66
14269;BME280;7218;51.480;7.006;2022-07-05T01:45:45;101386.19;;;19.52;79.96
14269;BME280;7218;51.480;7.006;2022-07-05T01:48:12;101389.13;;;19.45;79.50
14269;BME280;7218;51.480;7.006;2022-07-05T01:50:44;101384.28;;;19.32;80.28
14269;BME280;7218;51.480;7.006;2022-07-05T01:53:15;101385.97;;;19.33;80.32
14269;BME280;7218;51.480;7.006;2022-07-05T01:55:43;101390.66;;;19.27;81.18
14269;BME280;7218;51.480;7.006;2022-07-05T01:58:11;101379.81;;;19.33;81.32
14269;BME280;7218;51.480;7.006;2022-07-05T02:00:42;101375.47;;;19.32;81.52
14269;BME280;7218;51.480;7.006;2022-07-05T02:03:09;101373.81;;;19.29;81.41
14269;BME280;7218;51.480;7.006;2022-07-05T02:05:36;101369.03;;;19.16;82.80
14269;BME280;7218;51.480;7.006;2022-07-05T02:08:04;101365.69;;;19.11;82.67
14269;BME280;7218;51.480;7.006;2022-07-05T02:10:30;101369.59;;;19.01;82.86
14269;BME280;7218;51.480;7.006;2022-07-05T02:12:56;101372.25;;;19.01;83.31
14269;BME280;7218;51.480;7.006;2022-07-05T02:15:24;101370.66;;;18.97;84.05
14269;BME280;7218;51.480;7.006;2022-07-05T02:17:51;101375.81;;;19.00;83.79
14269;BME280;7218;51.480;7.006;2022-07-05T02:20:17;101375.47;;;19.09;83.21
14269;BME280;7218;51.480;7.006;2022-07-05T02:22:44;101393.06;;;19.10;82.88
14269;BME280;7218;51.480;7.006;2022-07-05T02:25:11;101386.13;;;19.07;82.83
14269;BME280;7218;51.480;7.006;2022-07-05T02:27:38;101375.75;;;19.01;83.45
14269;BME280;7218;51.480;7.006;2022-07-05T02:30:05;101375.59;;;19.06;83.51
14269;BME280;7218;51.480;7.006;2022-07-05T02:32:33;101373.13;;;19.01;83.73
14269;BME280;7218;51.480;7.006;2022-07-05T02:35:00;101370.72;;;18.93;85.42
14269;BME280;7218;51.480;7.006;2022-07-05T02:37:26;101373.47;;;18.92;83.89
14269;BME280;7218;51.480;7.006;2022-07-05T02:39:54;101375.44;;;18.85;84.12
14269;BME280;7218;51.480;7.006;2022-07-05T02:42:20;101374.78;;;18.79;84.58
14269;BME280;7218;51.480;7.006;2022-07-05T02:44:47;101376.56;;;18.78;84.04
14269;BME280;7218;51.480;7.006;2022-07-05T02:47:13;101367.81;;;18.78;84.39
14269;BME280;7218;51.480;7.006;2022-07-05T02:49:41;101372.31;;;18.74;85.45
14269;BME280;7218;51.480;7.006;2022-07-05T02:52:08;101375.63;;;18.81;85.55
14269;BME280;7218;51.480;7.006;2022-07-05T02:54:34;101383.59;;;18.79;84.86
14269;BME280;7218;51.480;7.006;2022-07-05T02:57:00;101383.38;;;18.85;84.54
14269;BME280;7218;51.480;7.006;2022-07-05T02:59:27;101377.81;;;18.93;84.75
14269;BME280;7218;51.480;7.006;2022-07-05T03:01:55;101382.94;;;18.98;83.47
14269;BME280;7218;51.480;7.006;2022-07-05T03:04:21;101385.28;;;19.05;83.33
14269;BME280;7218;51.480;7.006;2022-07-05T03:06:49;101396.88;;;19.03;83.00
14269;BME280;7218;51.480;7.006;2022-07-05T03:09:15;101386.16;;;19.06;83.20
14269;BME280;7218;51.480;7.006;2022-07-05T03:11:42;101383.34;;;19.10;83.44
14269;BME280;7218;51.480;7.006;2022-07-05T03:14:08;101384.56;;;19.02;83.40
14269;BME280;7218;51.480;7.006;2022-07-05T03:16:35;101387.41;;;18.96;84.74
14269;BME280;7218;51.480;7.006;2022-07-05T03:19:03;101387.78;;;18.85;85.32
14269;BME280;7218;51.480;7.006;2022-07-05T03:21:30;101387.06;;;18.81;85.47
14269;BME280;7218;51.480;7.006;2022-07-05T03:23:58;101390.41;;;18.86;84.85
14269;BME280;7218;51.480;7.006;2022-07-05T03:26:24;101400.44;;;18.77;85.42
14269;BME280;7218;51.480;7.006;2022-07-05T03:28:51;101397.13;;;18.70;84.69
14269;BME280;7218;51.480;7.006;2022-07-05T03:31:17;101406.66;;;18.74;85.59
14269;BME280;7218;51.480;7.006;2022-07-05T03:33:44;101396.94;;;18.76;85.67
14269;BME280;7218;51.480;7.006;2022-07-05T03:36:10;101392.56;;;18.75;86.82
14269;BME280;7218;51.480;7.006;2022-07-05T03:38:37;101397.09;;;18.72;86.67
14269;BME280;7218;51.480;7.006;2022-07-05T03:41:05;101397.88;;;18.74;86.09
14269;BME280;7218;51.480;7.006;2022-07-05T03:43:31;101394.16;;;18.79;86.07
14269;BME280;7218;51.480;7.006;2022-07-05T03:45:58;101403.81;;;18.80;85.63
14269;BME280;7218;51.480;7.006;2022-07-05T03:48:24;101390.47;;;18.83;85.73
14269;BME280;7218;51.480;7.006;2022-07-05T03:50:51;101390.72;;;18.77;86.40
14269;BME280;7218;51.480;7.006;2022-07-05T03:53:17;101394.16;;;18.79;86.27
14269;BME280;7218;51.480;7.006;2022-07-05T03:55:44;101396.00;;;18.77;86.60
14269;BME280;7218;51.480;7.006;2022-07-05T03:58:12;101395.19;;;18.75;86.92
14269;BME280;7218;51.480;7.006;2022-07-05T04:00:38;101403.13;;;18.75;86.80
14269;BME280;7218;51.480;7.006;2022-07-05T04:03:05;101395.94;;;18.79;87.39
14269;BME280;7218;51.480;7.006;2022-07-05T04:05:31;101397.97;;;18.72;87.40
14269;BME280;7218;51.480;7.006;2022-07-05T04:07:58;101411.47;;;18.63;87.85
14269;BME280;7218;51.480;7.006;2022-07-05T04:10:25;101413.00;;;18.70;86.43
14269;BME280;7218;51.480;7.006;2022-07-05T04:12:52;101413.09;;;18.67;86.03
14269;BME280;7218;51.480;7.006;2022-07-05T04:15:20;101414.44;;;18.79;86.05
14269;BME280;7218;51.480;7.006;2022-07-05T04:17:48;101418.66;;;18.84;85.62
14269;BME280;7218;51.480;7.006;2022-07-05T04:20:15;101409.38;;;18.73;85.68
14269;BME280;7218;51.480;7.006;2022-07-05T04:22:41;101421.66;;;18.74;86.00
14269;BME280;7218;51.480;7.006;2022-07-05T04:25:09;101416.53;;;18.69;85.95
14269;BME280;7218;51.480;7.006;2022-07-05T04:27:44;101425.78;;;18.82;85.20
14269;BME280;7218;51.480;7.006;2022-07-05T04:30:11;101422.19;;;18.83;84.80
14269;BME280;7218;51.480;7.006;2022-07-05T04:32:39;101430.41;;;18.76;83.61
14269;BME280;7218;51.480;7.006;2022-07-05T04:35:06;101420.59;;;18.79;83.91
14269;BME280;7218;51.480;7.006;2022-07-05T04:37:33;101428.59;;;18.78;84.49
14269;BME280;7218;51.480;7.006;2022-07-05T04:40:00;101426.31;;;18.67;85.34
14269;BME280;7218;51.480;7.006;2022-07-05T04:42:26;101427.97;;;18.70;84.96
14269;BME280;7218;51.480;7.006;2022-07-05T04:44:53;101432.50;;;18.66;84.92
14269;BME280;7218;51.480;7.006;2022-07-05T04:47:19;101428.34;;;18.59;85.07
14269;BME280;7218;51.480;7.006;2022-07-05T04:49:47;101425.50;;;18.65;85.04
14269;BME280;7218;51.480;7.006;2022-07-05T04:52:13;101428.19;;;18.64;85.30
14269;BME280;7218;51.480;7.006;2022-07-05T04:54:40;101428.03;;;18.68;85.14
14269;BME280;7218;51.480;7.006;2022-07-05T04:57:06;101432.34;;;18.71;84.94
14269;BME280;7218;51.480;7.006;2022-07-05T04:59:33;101427.72;;;18.77;83.98
14269;BME280;7218;51.480;7.006;2022-07-05T05:01:59;101436.34;;;18.82;84.71
14269;BME280;7218;51.480;7.006;2022-07-05T05:04:26;101436.97;;;18.89;84.94
14269;BME280;7218;51.480;7.006;2022-07-05T05:06:54;101442.09;;;18.93;84.49
14269;BME280;7218;51.480;7.006;2022-07-05T05:09:20;101443.88;;;18.93;84.65
14269;BME280;7218;51.480;7.006;2022-07-05T05:11:47;101439.78;;;18.84;84.68
14269;BME280;7218;51.480;7.006;2022-07-05T05:14:13;101443.09;;;18.91;83.30
14269;BME280;7218;51.480;7.006;2022-07-05T05:16:40;101447.38;;;18.93;82.86
14269;BME280;7218;51.480;7.006;2022-07-05T05:19:06;101445.38;;;19.02;82.51
14269;BME280;7218;51.480;7.006;2022-07-05T05:21:33;101446.63;;;19.15;81.23
14269;BME280;7218;51.480;7.006;2022-07-05T05:24:00;101443.88;;;19.18;79.80
14269;BME280;7218;51.480;7.006;2022-07-05T05:26:27;101442.56;;;19.29;79.91
14269;BME280;7218;51.480;7.006;2022-07-05T05:28:54;101448.47;;;19.38;79.92
14269;BME280;7218;51.480;7.006;2022-07-05T05:31:20;101444.69;;;19.43;79.15
14269;BME280;7218;51.480;7.006;2022-07-05T05:33:47;101457.69;;;19.51;77.79
14269;BME280;7218;51.480;7.006;2022-07-05T05:36:13;101453.34;;;19.48;78.65
14269;BME280;7218;51.480;7.006;2022-07-05T05:38:40;101457.56;;;19.54;78.56
14269;BME280;7218;51.480;7.006;2022-07-05T05:41:08;101456.47;;;19.59;78.51
14269;BME280;7218;51.480;7.006;2022-07-05T05:43:34;101457.97;;;19.66;78.50
14269;BME280;7218;51.480;7.006;2022-07-05T05:46:02;101456.94;;;19.70;78.60
14269;BME280;7218;51.480;7.006;2022-07-05T05:48:29;101454.63;;;19.61;78.88
14269;BME280;7218;51.480;7.006;2022-07-05T05:50:55;101456.38;;;19.62;78.88
14269;BME280;7218;51.480;7.006;2022-07-05T05:53:22;101454.75;;;19.58;78.61
14269;BME280;7218;51.480;7.006;2022-07-05T05:55:48;101457.97;;;19.66;77.33
14269;BME280;7218;51.480;7.006;2022-07-05T05:58:18;101467.84;;;19.85;76.61
14269;BME280;7218;51.480;7.006;2022-07-05T06:00:46;101466.19;;;20.04;75.12
14269;BME280;7218;51.480;7.006;2022-07-05T06:03:13;101464.19;;;20.10;73.40
14269;BME280;7218;51.480;7.006;2022-07-05T06:05:40;101455.41;;;20.32;72.09
14269;BME280;7218;51.480;7.006;2022-07-05T06:08:06;101462.53;;;20.51;71.45
14269;BME280;7218;51.480;7.006;2022-07-05T06:10:34;101471.19;;;20.77;70.89
14269;BME280;7218;51.480;7.006;2022-07-05T06:13:03;101473.03;;;20.95;71.13
14269;BME280;7218;51.480;7.006;2022-07-05T06:15:31;101466.47;;;21.03;71.03
14269;BME280;7218;51.480;7.006;2022-07-05T06:17:58;101471.34;;;21.13;69.79
14269;BME280;7218;51.480;7.006;2022-07-05T06:20:26;101471.31;;;21.34;69.44
14269;BME280;7218;51.480;7.006;2022-07-05T06:22:54;101483.19;;;21.46;67.88
14269;BME280;7218;51.480;7.006;2022-07-05T06:25:20;101485.63;;;21.51;67.42
14269;BME280;7218;51.480;7.006;2022-07-05T06:27:49;101478.34;;;21.35;65.99
14269;BME280;7218;51.480;7.006;2022-07-05T06:30:17;101484.31;;;21.40;65.86
14269;BME280;7218;51.480;7.006;2022-07-05T06:32:46;101487.25;;;21.14;65.81
14269;BME280;7218;51.480;7.006;2022-07-05T06:35:14;101484.28;;;21.22;63.63
14269;BME280;7218;51.480;7.006;2022-07-05T06:37:42;101481.31;;;21.08;64.58
14269;BME280;7218;51.480;7.006;2022-07-05T06:40:10;101491.44;;;20.98;66.41
14269;BME280;7218;51.480;7.006;2022-07-05T06:42:36;101486.44;;;20.92;64.88
14269;BME280;7218;51.480;7.006;2022-07-05T06:45:03;101489.91;;;20.92;66.12
14269;BME280;7218;51.480;7.006;2022-07-05T06:47:30;101485.09;;;20.61;66.75
14269;BME280;7218;51.480;7.006;2022-07-05T06:49:58;101483.47;;;20.78;68.01
14269;BME280;7218;51.480;7.006;2022-07-05T06:52:25;101478.47;;;20.72;64.54
14269;BME280;7218;51.480;7.006;2022-07-05T06:54:51;101488.47;;;20.85;61.77
14269;BME280;7218;51.480;7.006;2022-07-05T06:57:19;101487.94;;;20.97;62.61
14269;BME280;7218;51.480;7.006;2022-07-05T06:59:46;101490.06;;;20.89;61.20
14269;BME280;7218;51.480;7.006;2022-07-05T07:02:12;101494.19;;;20.96;62.77
14269;BME280;7218;51.480;7.006;2022-07-05T07:04:38;101492.00;;;20.86;61.13
14269;BME280;7218;51.480;7.006;2022-07-05T07:07:07;101492.47;;;20.95;60.33
14269;BME280;7218;51.480;7.006;2022-07-05T07:09:56;101500.72;;;21.08;60.25
14269;BME280;7218;51.480;7.006;2022-07-05T07:12:21;101494.13;;;21.18;58.85
14269;BME280;7218;51.480;7.006;2022-07-05T07:14:48;101495.44;;;21.28;57.24
14269;BME280;7218;51.480;7.006;2022-07-05T07:17:14;101500.50;;;21.34;57.14
14269;BME280;7218;51.480;7.006;2022-07-05T07:19:41;101500.69;;;21.30;55.74
14269;BME280;7218;51.480;7.006;2022-07-05T07:22:09;101505.81;;;21.34;57.24
14269;BME280;7218;51.480;7.006;2022-07-05T07:24:35;101500.69;;;21.30;58.53
14269;BME280;7218;51.480;7.006;2022-07-05T07:27:02;101503.81;;;21.39;58.25
14269;BME280;7218;51.480;7.006;2022-07-05T07:29:29;101502.53;;;21.08;57.51
14269;BME280;7218;51.480;7.006;2022-07-05T07:31:56;101497.44;;;21.23;56.32
14269;BME280;7218;51.480;7.006;2022-07-05T07:34:23;101499.81;;;21.09;56.29
14269;BME280;7218;51.480;7.006;2022-07-05T07:36:51;101507.81;;;21.29;56.81
14269;BME280;7218;51.480;7.006;2022-07-05T07:39:19;101501.69;;;21.27;57.66
14269;BME280;7218;51.480;7.006;2022-07-05T07:41:46;101505.28;;;21.65;56.47
14269;BME280;7218;51.480;7.006;2022-07-05T07:44:12;101504.72;;;21.77;55.03
14269;BME280;7218;51.480;7.006;2022-07-05T07:46:39;101511.25;;;21.89;55.95
14269;BME280;7218;51.480;7.006;2022-07-05T07:49:06;101517.16;;;22.14;55.20
14269;BME280;7218;51.480;7.006;2022-07-05T07:51:32;101516.94;;;22.19;54.82
14269;BME280;7218;51.480;7.006;2022-07-05T07:53:59;101509.50;;;22.44;52.49
14269;BME280;7218;51.480;7.006;2022-07-05T07:56:29;101502.91;;;22.70;51.95
14269;BME280;7218;51.480;7.006;2022-07-05T07:58:55;101497.72;;;22.67;52.33
14269;BME280;7218;51.480;7.006;2022-07-05T08:01:22;101507.34;;;22.16;51.30
14269;BME280;7218;51.480;7.006;2022-07-05T08:03:49;101498.88;;;22.44;51.09
14269;BME280;7218;51.480;7.006;2022-07-05T08:06:16;101504.03;;;22.47;52.00
14269;BME280;7218;51.480;7.006;2022-07-05T08:08:43;101512.13;;;22.63;52.63
14269;BME280;7218;51.480;7.006;2022-07-05T08:11:11;101504.66;;;22.88;50.95
14269;BME280;7218;51.480;7.006;2022-07-05T08:13:39;101509.13;;;23.05;49.89
14269;BME280;7218;51.480;7.006;2022-07-05T08:16:07;101507.09;;;23.10;50.78
14269;BME280;7218;51.480;7.006;2022-07-05T08:18:34;101506.75;;;23.50;48.98
14269;BME280;7218;51.480;7.006;2022-07-05T08:21:18;101511.84;;;23.55;48.29
14269;BME280;7218;51.480;7.006;2022-07-05T08:23:57;101514.34;;;23.41;47.76
14269;BME280;7218;51.480;7.006;2022-07-05T08:26:24;101513.44;;;22.90;48.30
14269;BME280;7218;51.480;7.006;2022-07-05T08:28:52;101522.81;;;22.97;47.82
14269;BME280;7218;51.480;7.006;2022-07-05T08:31:19;101525.00;;;23.06;48.24
14269;BME280;7218;51.480;7.006;2022-07-05T08:33:46;101518.59;;;23.10;47.46
14269;BME280;7218;51.480;7.006;2022-07-05T08:36:13;101520.72;;;22.68;48.87
14269;BME280;7218;51.480;7.006;2022-07-05T08:38:39;101528.84;;;22.84;48.66
14269;BME280;7218;51.480;7.006;2022-07-05T08:41:07;101514.06;;;22.95;47.79
14269;BME280;7218;51.480;7.006;2022-07-05T08:43:35;101514.38;;;22.89;48.32
14269;BME280;7218;51.480;7.006;2022-07-05T08:46:05;101513.72;;;23.18;47.92
14269;BME280;7218;51.480;7.006;2022-07-05T08:48:36;101517.38;;;23.33;47.73
14269;BME280;7218;51.480;7.006;2022-07-05T08:51:08;101515.50;;;23.52;46.49
14269;BME280;7218;51.480;7.006;2022-07-05T08:53:36;101515.56;;;23.84;46.12
14269;BME280;7218;51.480;7.006;2022-07-05T08:56:04;101517.91;;;23.57;47.87
14269;BME280;7218;51.480;7.006;2022-07-05T08:58:30;101515.59;;;23.51;45.53
14269;BME280;7218;51.480;7.006;2022-07-05T09:00:57;101515.09;;;23.43;45.92
14269;BME280;7218;51.480;7.006;2022-07-05T09:03:30;101512.28;;;23.79;45.63
14269;BME280;7218;51.480;7.006;2022-07-05T09:05:58;101515.09;;;24.40;44.63
14269;BME280;7218;51.480;7.006;2022-07-05T09:08:26;101513.38;;;24.84;45.24
14269;BME280;7218;51.480;7.006;2022-07-05T09:10:57;101517.69;;;24.71;43.21
14269;BME280;7218;51.480;7.006;2022-07-05T09:13:24;101515.09;;;24.56;43.73
14269;BME280;7218;51.480;7.006;2022-07-05T09:15:50;101508.69;;;24.58;43.86
14269;BME280;7218;51.480;7.006;2022-07-05T09:18:39;101521.16;;;24.73;43.98
14269;BME280;7218;51.480;7.006;2022-07-05T09:21:14;101518.00;;;24.51;44.00
14269;BME280;7218;51.480;7.006;2022-07-05T09:23:40;101515.22;;;24.68;42.90
14269;BME280;7218;51.480;7.006;2022-07-05T09:26:07;101520.50;;;25.00;41.35
14269;BME280;7218;51.480;7.006;2022-07-05T09:28:34;101518.16;;;25.23;40.01
14269;BME280;7218;51.480;7.006;2022-07-05T09:31:01;101519.94;;;25.09;40.54
14269;BME280;7218;51.480;7.006;2022-07-05T09:33:27;101523.16;;;24.54;40.99
14269;BME280;7218;51.480;7.006;2022-07-05T09:35:56;101517.16;;;24.51;43.05
14269;BME280;7218;51.480;7.006;2022-07-05T09:38:24;101514.44;;;24.66;41.83
14269;BME280;7218;51.480;7.006;2022-07-05T09:40:53;101511.84;;;25.10;40.09
14269;BME280;7218;51.480;7.006;2022-07-05T09:43:20;101510.06;;;25.25;38.91
14269;BME280;7218;51.480;7.006;2022-07-05T09:45:54;101513.53;;;25.84;38.32
14269;BME280;7218;51.480;7.006;2022-07-05T09:48:20;101512.88;;;26.35;36.80
14269;BME280;7218;51.480;7.006;2022-07-05T09:50:48;101508.28;;;26.64;36.81
14269;BME280;7218;51.480;7.006;2022-07-05T09:53:16;101513.69;;;26.23;36.72
14269;BME280;7218;51.480;7.006;2022-07-05T09:55:59;101513.50;;;26.66;38.17
14269;BME280;7218;51.480;7.006;2022-07-05T09:58:26;101514.47;;;25.40;37.74
14269;BME280;7218;51.480;7.006;2022-07-05T10:00:52;101511.94;;;26.76;37.86
14269;BME280;7218;51.480;7.006;2022-07-05T10:03:19;101516.06;;;26.13;36.09
14269;BME280;7218;51.480;7.006;2022-07-05T10:05:45;101527.72;;;26.12;36.22
14269;BME280;7218;51.480;7.006;2022-07-05T10:08:12;101528.50;;;26.41;37.50
14269;BME280;7218;51.480;7.006;2022-07-05T10:10:41;101521.81;;;27.15;35.84
14269;BME280;7218;51.480;7.006;2022-07-05T10:13:09;101521.69;;;27.16;34.52
14269;BME280;7218;51.480;7.006;2022-07-05T10:15:36;101518.56;;;27.35;34.03
14269;BME280;7218;51.480;7.006;2022-07-05T10:18:04;101529.13;;;27.51;33.65
14269;BME280;7218;51.480;7.006;2022-07-05T10:20:33;101519.75;;;27.94;32.96
14269;BME280;7218;51.480;7.006;2022-07-05T10:23:02;101521.78;;;27.91;33.66
14269;BME280;7218;51.480;7.006;2022-07-05T10:25:28;101528.47;;;27.34;33.81
14269;BME280;7218;51.480;7.006;2022-07-05T10:27:56;101525.69;;;27.49;32.79
14269;BME280;7218;51.480;7.006;2022-07-05T10:30:24;101522.81;;;26.87;33.15
14269;BME280;7218;51.480;7.006;2022-07-05T10:32:51;101535.41;;;25.90;33.37
14269;BME280;7218;51.480;7.006;2022-07-05T10:35:18;101536.06;;;25.80;33.47
14269;BME280;7218;51.480;7.006;2022-07-05T10:37:47;101531.13;;;25.59;33.80
14269;BME280;7218;51.480;7.006;2022-07-05T10:40:14;101524.06;;;26.28;32.50
14269;BME280;7218;51.480;7.006;2022-07-05T10:42:43;101523.53;;;26.49;32.36
14269;BME280;7218;51.480;7.006;2022-07-05T10:45:29;101512.78;;;26.76;32.06
14269;BME280;7218;51.480;7.006;2022-07-05T10:48:12;101512.16;;;27.37;31.50
14269;BME280;7218;51.480;7.006;2022-07-05T10:50:43;101523.44;;;26.10;33.11
14269;BME280;7218;51.480;7.006;2022-07-05T10:53:10;101519.19;;;26.34;31.53
14269;BME280;7218;51.480;7.006;2022-07-05T10:55:47;101512.25;;;26.98;31.17
14269;BME280;7218;51.480;7.006;2022-07-05T10:58:32;101514.19;;;26.69;30.60
14269;BME280;7218;51.480;7.006;2022-07-05T11:04:24;101508.47;;;26.88;32.16
14269;BME280;7218;51.480;7.006;2022-07-05T11:06:52;101519.69;;;26.27;33.59
14269;BME280;7218;51.480;7.006;2022-07-05T11:09:20;101512.28;;;25.61;35.16
14269;BME280;7218;51.480;7.006;2022-07-05T11:12:02;101514.72;;;26.35;34.56
14269;BME280;7218;51.480;7.006;2022-07-05T11:14:31;101501.34;;;26.74;34.38
14269;BME280;7218;51.480;7.006;2022-07-05T11:17:24;101514.06;;;27.10;34.96
14269;BME280;7218;51.480;7.006;2022-07-05T11:20:13;101513.25;;;26.83;33.26
14269;BME280;7218;51.480;7.006;2022-07-05T11:22:42;101521.88;;;26.20;34.36
14269;BME280;7218;51.480;7.006;2022-07-05T11:25:27;101521.75;;;26.63;33.96
14269;BME280;7218;51.480;7.006;2022-07-05T11:28:05;101521.50;;;26.26;35.11
14269;BME280;7218;51.480;7.006;2022-07-05T11:30:51;101517.69;;;26.02;34.87
14269;BME280;7218;51.480;7.006;2022-07-05T11:33:36;101513.25;;;26.43;34.52
14269;BME280;7218;51.480;7.006;2022-07-05T11:36:05;101503.81;;;27.29;34.25
14269;BME280;7218;51.480;7.006;2022-07-05T11:38:33;101507.22;;;27.82;32.86
14269;BME280;7218;51.480;7.006;2022-07-05T11:41:11;101501.09;;;27.80;32.16
14269;BME280;7218;51.480;7.006;2022-07-05T11:43:38;101506.81;;;27.63;31.32
14269;BME280;7218;51.480;7.006;2022-07-05T11:46:06;101502.66;;;28.44;30.16
14269;BME280;7218;51.480;7.006;2022-07-05T11:48:32;101499.38;;;29.22;29.95
14269;BME280;7218;51.480;7.006;2022-07-05T11:51:11;101500.00;;;29.14;29.60
14269;BME280;7218;51.480;7.006;2022-07-05T11:53:39;101495.78;;;28.64;31.15
14269;BME280;7218;51.480;7.006;2022-07-05T11:56:06;101489.75;;;28.73;30.03
14269;BME280;7218;51.480;7.006;2022-07-05T11:58:33;101481.88;;;28.94;29.25
14269;BME280;7218;51.480;7.006;2022-07-05T12:01:00;101479.34;;;28.68;30.03
14269;BME280;7218;51.480;7.006;2022-07-05T12:03:27;101485.06;;;28.16;30.34
14269;BME280;7218;51.480;7.006;2022-07-05T12:05:53;101481.94;;;27.73;31.10
14269;BME280;7218;51.480;7.006;2022-07-05T12:08:22;101487.63;;;27.56;32.62
14269;BME280;7218;51.480;7.006;2022-07-05T12:10:49;101478.25;;;27.87;31.66
14269;BME280;7218;51.480;7.006;2022-07-05T12:13:43;101478.81;;;28.87;30.03
14269;BME280;7218;51.480;7.006;2022-07-05T12:16:10;101485.91;;;28.17;30.63
14269;BME280;7218;51.480;7.006;2022-07-05T12:18:46;101472.28;;;28.07;30.75
14269;BME280;7218;51.480;7.006;2022-07-05T12:21:13;101479.59;;;27.69;31.08
14269;BME280;7218;51.480;7.006;2022-07-05T12:23:42;101461.22;;;28.83;29.46
14269;BME280;7218;51.480;7.006;2022-07-05T12:26:10;101471.41;;;29.24;29.73
14269;BME280;7218;51.480;7.006;2022-07-05T12:28:37;101459.50;;;28.82;29.11
14269;BME280;7218;51.480;7.006;2022-07-05T12:31:17;101464.50;;;29.33;29.87
14269;BME280;7218;51.480;7.006;2022-07-05T12:33:44;101471.34;;;28.91;29.87
14269;BME280;7218;51.480;7.006;2022-07-05T12:36:11;101471.59;;;28.88;30.48
14269;BME280;7218;51.480;7.006;2022-07-05T12:38:38;101471.78;;;28.50;30.84
14269;BME280;7218;51.480;7.006;2022-07-05T12:41:06;101463.50;;;29.45;29.81
14269;BME280;7218;51.480;7.006;2022-07-05T12:43:32;101464.00;;;29.72;29.78
14269;BME280;7218;51.480;7.006;2022-07-05T12:46:00;101460.22;;;28.84;30.33
14269;BME280;7218;51.480;7.006;2022-07-05T12:48:31;101467.78;;;28.44;30.92
14269;BME280;7218;51.480;7.006;2022-07-05T12:50:58;101475.28;;;27.66;32.63
14269;BME280;7218;51.480;7.006;2022-07-05T12:53:24;101469.72;;;28.06;32.02
14269;BME280;7218;51.480;7.006;2022-07-05T12:56:11;101461.44;;;28.21;31.73
14269;BME280;7218;51.480;7.006;2022-07-05T12:58:57;101466.19;;;30.01;30.64
14269;BME280;7218;51.480;7.006;2022-07-05T13:01:26;101464.03;;;31.62;29.06
14269;BME280;7218;51.480;7.006;2022-07-05T13:04:03;101477.84;;;32.57;26.61
14269;BME280;7218;51.480;7.006;2022-07-05T13:06:45;101470.63;;;32.76;26.28
14269;BME280;7218;51.480;7.006;2022-07-05T13:09:13;101467.31;;;33.02;25.86